Time;durP1;ratioP1;P1;durP2;ratioP2;P2;SDS_P1;SDS_P2;PMS_P1;PMS_P2;Temp;Humidity;BMP_temperature;BMP_pressure;BME280_temperature;BME280_humidity;BME280_pressure;Samples;Min_cycle;Max_cycle;Signal;HPM_P1;HPM_P2
2022/05/02 00:00:47;;;;;;;;;;;;;;;18.39;54.79;100699.03;5055159;28;19912;-81
2022/05/02 00:03:31;;;;;;;;;;;;;;;18.43;54.43;100702.66;5052097;28;20277;-80
2022/05/02 00:06:16;;;;;;;;;;;;;;;18.45;54.53;100700.31;5067035;28;19912;-80
2022/05/02 00:09:00;;;;;;;;;;;;;;;18.44;54.58;100692.47;5066040;28;19912;-80
2022/05/02 00:11:44;;;;;;;;;;;;;;;18.43;54.70;100699.13;5073641;28;19912;-80
2022/05/02 00:14:29;;;;;;;;;;;;;;;18.41;54.78;100691.22;5063407;28;19917;-80
2022/05/02 00:17:13;;;;;;;;;;;;;;;18.39;54.99;100694.34;5069488;28;19916;-81
2022/05/02 00:19:57;;;;;;;;;;;;;;;18.39;55.11;100694.34;5075394;28;19912;-82
2022/05/02 00:22:42;;;;;;;;;;;;;;;18.40;55.12;100684.13;5053605;28;19912;-83
2022/05/02 00:25:27;;;;;;;;;;;;;;;18.38;55.04;100681.75;5055746;28;19912;-82
2022/05/02 00:28:13;;;;;;;;;;;;;;;18.38;54.95;100687.25;5056079;28;19913;-82
2022/05/02 00:30:57;;;;;;;;;;;;;;;18.37;54.97;100676.59;5056664;28;19913;-82
2022/05/02 00:33:42;;;;;;;;;;;;;;;18.39;54.94;100679.75;5056020;28;20293;-82
2022/05/02 00:36:26;;;;;;;;;;;;;;;18.34;54.86;100680.06;5067244;28;19912;-80
2022/05/02 00:39:11;;;;;;;;;;;;;;;18.32;55.22;100682.41;5068044;28;19912;-79
2022/05/02 00:41:55;;;;;;;;;;;;;;;18.28;55.47;100668.59;5064220;28;21331;-80
2022/05/02 00:44:40;;;;;;;;;;;;;;;18.28;55.51;100678.81;5066077;28;19912;-81
2022/05/02 00:47:25;;;;;;;;;;;;;;;18.26;55.59;100675.63;5069314;28;19917;-81
2022/05/02 00:50:10;;;;;;;;;;;;;;;18.27;55.51;100677.22;5072157;28;19913;-81
2022/05/02 00:52:55;;;;;;;;;;;;;;;18.27;55.76;100677.22;5070794;28;19916;-81
2022/05/02 00:55:40;;;;;;;;;;;;;;;18.28;55.85;100673.31;5055126;28;20316;-81
2022/05/02 00:58:24;;;;;;;;;;;;;;;18.25;55.76;100672.06;5075040;28;19912;-81
2022/05/02 01:01:09;;;;;;;;;;;;;;;18.24;55.87;100669.69;5067475;28;19912;-81
2022/05/02 01:03:55;;;;;;;;;;;;;;;18.25;56.02;100672.06;5066518;28;19916;-81
2022/05/02 01:09:44;;;;;;;;;;;;;;;18.20;55.72;100669.63;5062767;28;19912;-81
2022/05/02 01:12:28;;;;;;;;;;;;;;;18.21;55.78;100664.94;5065296;28;19916;-79
2022/05/02 01:15:14;;;;;;;;;;;;;;;18.21;55.96;100670.44;5088629;28;19913;-81
2022/05/02 01:17:59;;;;;;;;;;;;;;;18.21;55.93;100660.22;5068391;28;19912;-81
2022/05/02 01:20:43;;;;;;;;;;;;;;;18.22;56.15;100663.78;5066085;28;19916;-80
2022/05/02 01:23:27;;;;;;;;;;;;;;;18.22;56.15;100658.25;5071521;28;20292;-79
2022/05/02 01:26:12;;;;;;;;;;;;;;;18.22;56.38;100658.25;5048611;28;19912;-81
2022/05/02 01:28:58;;;;;;;;;;;;;;;18.26;56.40;100659.09;5054450;28;20308;-79
2022/05/02 01:31:45;;;;;;;;;;;;;;;18.27;56.29;100652.44;5057961;28;20293;-81
2022/05/02 01:34:29;;;;;;;;;;;;;;;18.24;56.03;100658.66;5054241;28;19917;-81
2022/05/02 01:37:14;;;;;;;;;;;;;;;18.30;55.61;100659.97;5054045;28;19916;-80
2022/05/02 01:39:58;;;;;;;;;;;;;;;18.30;55.55;100651.69;5055065;28;20385;-79
2022/05/02 01:42:43;;;;;;;;;;;;;;;18.28;55.53;100645.78;5053707;28;19913;-81
2022/05/02 01:45:27;;;;;;;;;;;;;;;18.28;55.61;100645.78;5069252;28;19912;-79
2022/05/02 01:48:12;;;;;;;;;;;;;;;18.24;55.73;100640.19;5060639;28;20369;-79
2022/05/02 01:50:57;;;;;;;;;;;;;;;18.22;55.85;100641.75;5054522;28;19912;-79
2022/05/02 01:53:42;;;;;;;;;;;;;;;18.16;56.06;100645.97;5053736;28;19917;-80
2022/05/02 01:56:27;;;;;;;;;;;;;;;18.13;56.16;100643.97;5059596;28;19913;-82
2022/05/02 01:59:11;;;;;;;;;;;;;;;18.08;55.99;100647.78;5052640;28;19912;-81
2022/05/02 02:01:56;;;;;;;;;;;;;;;18.09;56.45;100651.34;5070148;28;20313;-81
2022/05/02 02:07:43;;;;;;;;;;;;;;;18.04;56.40;100644.19;5055864;28;19916;-79
2022/05/02 02:10:28;;;;;;;;;;;;;;;18.01;56.28;100642.19;5057527;28;19916;-79
2022/05/02 02:13:13;;;;;;;;;;;;;;;18.03;56.66;100641.81;5066903;28;19917;-80
2022/05/02 02:15:58;;;;;;;;;;;;;;;18.05;56.57;100640.28;5070059;28;19913;-80
2022/05/02 02:18:42;;;;;;;;;;;;;;;18.07;56.70;100637.16;5054163;28;19913;-79
2022/05/02 02:21:27;;;;;;;;;;;;;;;18.09;56.34;100640.31;5067481;28;19912;-81
2022/05/02 02:24:11;;;;;;;;;;;;;;;18.08;56.48;100638.75;5078794;28;19912;-80
2022/05/02 02:26:57;;;;;;;;;;;;;;;18.05;56.48;100632.03;5074056;28;19931;-79
2022/05/02 02:29:41;;;;;;;;;;;;;;;18.02;56.58;100629.22;5072820;28;19916;-80
2022/05/02 02:32:26;;;;;;;;;;;;;;;18.02;56.49;100635.53;5070069;28;19913;-80
2022/05/02 02:35:11;;;;;;;;;;;;;;;17.99;56.70;100632.69;5052348;28;19913;-81
2022/05/02 02:37:56;;;;;;;;;;;;;;;17.99;56.77;100630.72;5052320;28;19913;-80
2022/05/02 02:40:41;;;;;;;;;;;;;;;17.97;56.50;100626.78;5057617;28;19913;-80
2022/05/02 02:43:26;;;;;;;;;;;;;;;17.94;56.51;100629.09;5072913;28;20300;-81
2022/05/02 02:46:10;;;;;;;;;;;;;;;17.91;56.64;100629.84;5047437;28;19913;-80
2022/05/02 02:48:54;;;;;;;;;;;;;;;17.87;56.93;100622.69;5064704;28;19913;-80
2022/05/02 02:51:39;;;;;;;;;;;;;;;17.88;57.06;100625.03;5054170;28;19912;-81
2022/05/02 02:54:23;;;;;;;;;;;;;;;17.87;57.13;100628.97;5066726;28;19916;-81
2022/05/02 02:57:08;;;;;;;;;;;;;;;17.85;56.78;100625.78;5052633;28;19913;-81
2022/05/02 02:59:52;;;;;;;;;;;;;;;17.81;56.13;100627.69;5054702;28;19920;-81
2022/05/02 03:02:37;;;;;;;;;;;;;;;17.78;56.38;100622.91;5077496;28;19912;-81
2022/05/02 03:08:25;;;;;;;;;;;;;;;17.83;57.22;100624.56;5062459;28;20288;-82
2022/05/02 03:11:10;;;;;;;;;;;;;;;17.83;57.54;100619.84;5047788;28;20324;-80
2022/05/02 03:13:54;;;;;;;;;;;;;;;17.82;57.52;100610.03;5066929;28;19920;-82
2022/05/02 03:16:38;;;;;;;;;;;;;;;17.81;57.92;100602.94;5054256;28;20373;-82
2022/05/02 03:19:23;;;;;;;;;;;;;;;17.81;57.96;100613.94;5052515;28;19913;-82
2022/05/02 03:22:07;;;;;;;;;;;;;;;17.85;57.90;100613.97;5070348;28;20182;-81
2022/05/02 03:24:52;;;;;;;;;;;;;;;17.86;57.99;100601.81;5077098;28;19913;-79
2022/05/02 03:27:36;;;;;;;;;;;;;;;17.44;53.54;100607.31;5065585;28;20372;-83
2022/05/02 03:30:22;;;;;;;;;;;;;;;15.90;56.02;100604.25;5082615;28;19913;-83
2022/05/02 03:33:06;;;;;;;;;;;;;;;14.96;59.81;100606.75;5052745;28;19916;-83
2022/05/02 03:35:51;;;;;;;;;;;;;;;13.80;62.34;100606.59;5070929;28;20393;-83
2022/05/02 03:38:35;;;;;;;;;;;;;;;13.66;63.12;100602.22;5091482;28;19912;-83
2022/05/02 03:41:19;;;;;;;;;;;;;;;13.34;64.88;100603.06;5053717;28;19913;-83
2022/05/02 03:44:04;;;;;;;;;;;;;;;12.98;66.35;100597.41;5041784;28;19920;-83
2022/05/02 03:46:48;;;;;;;;;;;;;;;13.00;66.17;100597.88;5065755;28;20332;-83
2022/05/02 03:49:33;;;;;;;;;;;;;;;13.00;66.67;100603.34;5071554;28;19913;-85
2022/05/02 03:52:17;;;;;;;;;;;;;;;12.80;66.57;100607.66;5065658;28;19912;-85
2022/05/02 03:55:03;;;;;;;;;;;;;;;12.53;67.63;100600.00;5035336;28;20377;-84
2022/05/02 03:57:47;;;;;;;;;;;;;;;12.92;66.07;100604.19;5039421;28;19913;-85
2022/05/02 04:00:31;;;;;;;;;;;;;;;12.51;68.61;100604.97;5051516;28;19913;-83
2022/05/02 04:03:16;;;;;;;;;;;;;;;12.58;67.50;100603.31;5056068;28;19913;-82
2022/05/02 04:06:00;;;;;;;;;;;;;;;12.73;67.28;100613.66;5061876;28;19912;-82
2022/05/02 04:08:45;;;;;;;;;;;;;;;13.02;65.91;100603.78;5049001;28;20123;-82
2022/05/02 04:11:29;;;;;;;;;;;;;;;12.82;66.81;100610.84;5054308;28;19913;-84
2022/05/02 04:14:14;;;;;;;;;;;;;;;13.00;66.04;100611.53;5052657;28;20309;-82
2022/05/02 04:16:58;;;;;;;;;;;;;;;13.22;66.33;100611.19;5055273;28;19913;-82
2022/05/02 04:19:43;;;;;;;;;;;;;;;12.98;66.87;100611.06;5053761;28;19912;-82
2022/05/02 04:22:27;;;;;;;;;;;;;;;12.95;67.24;100615.25;5054700;28;19912;-82
2022/05/02 04:25:11;;;;;;;;;;;;;;;13.17;66.07;100605.94;5062869;28;19912;-82
2022/05/02 04:27:56;;;;;;;;;;;;;;;13.28;66.00;100607.13;5063411;28;19921;-82
2022/05/02 04:30:40;;;;;;;;;;;;;;;13.40;65.28;100614.56;5058688;28;19916;-84
2022/05/02 04:33:25;;;;;;;;;;;;;;;13.46;65.32;100608.53;5055050;28;19920;-84
2022/05/02 04:36:09;;;;;;;;;;;;;;;13.55;64.59;100611.22;5055760;28;19912;-83
2022/05/02 04:38:53;;;;;;;;;;;;;;;13.48;64.63;100616.41;5075295;28;19913;-82
2022/05/02 04:41:38;;;;;;;;;;;;;;;13.39;65.19;100629.34;5055709;28;19913;-81
2022/05/02 04:44:22;;;;;;;;;;;;;;;13.23;65.91;100627.25;5055631;28;19912;-82
2022/05/02 04:47:07;;;;;;;;;;;;;;;13.33;65.45;100627.97;5053389;28;20312;-82
2022/05/02 04:49:51;;;;;;;;;;;;;;;13.01;67.31;100624.03;5058512;28;19913;-82
2022/05/02 04:52:35;;;;;;;;;;;;;;;13.24;66.42;100626.13;5054522;28;19913;-82
2022/05/02 04:55:20;;;;;;;;;;;;;;;13.39;66.77;100623.91;5060978;28;19916;-82
2022/05/02 04:58:04;;;;;;;;;;;;;;;13.33;67.04;100620.56;5044253;28;19917;-82
2022/05/02 05:00:49;;;;;;;;;;;;;;;13.26;67.50;100625.75;5053602;28;19913;-82
2022/05/02 05:03:34;;;;;;;;;;;;;;;13.47;67.70;100623.81;5055062;28;19912;-82
2022/05/02 05:06:19;;;;;;;;;;;;;;;13.39;66.75;100626.63;5060967;28;19912;-83
2022/05/02 05:09:04;;;;;;;;;;;;;;;13.45;65.75;100625.28;5074732;28;19912;-82
2022/05/02 05:11:59;;;;;;;;;;;;;;;13.31;66.18;100628.28;5089701;22;19920;-81
2022/05/02 05:18:13;;;;;;;;;;;;;;;13.49;67.33;100631.66;5042099;28;19917;-80
2022/05/02 05:21:16;;;;;;;;;;;;;;;13.57;66.99;100637.03;5037818;28;20336;-80
2022/05/02 05:24:20;;;;;;;;;;;;;;;13.58;66.54;100637.84;5015830;28;19914;-80
2022/05/02 05:27:04;;;;;;;;;;;;;;;13.61;65.96;100637.19;5017039;28;19948;-80
2022/05/02 05:29:57;;;;;;;;;;;;;;;13.74;65.91;100640.72;5036898;28;19913;-81
2022/05/02 05:33:00;;;;;;;;;;;;;;;13.70;66.38;100635.16;5027593;28;19913;-81
2022/05/02 05:36:10;;;;;;;;;;;;;;;13.77;66.22;100640.03;5032345;28;20301;-81
2022/05/02 05:39:01;;;;;;;;;;;;;;;14.01;65.88;100645.59;5028996;28;19913;-80
2022/05/02 05:41:53;;;;;;;;;;;;;;;14.20;64.88;100647.75;5028750;28;19913;-80
2022/05/02 05:44:37;;;;;;;;;;;;;;;14.26;64.69;100646.41;5043908;28;19913;-80
2022/05/02 05:47:34;;;;;;;;;;;;;;;14.31;64.22;100646.97;5026758;28;20061;-80
2022/05/02 05:50:35;;;;;;;;;;;;;;;14.38;64.31;100644.47;5026673;28;20362;-81
2022/05/02 05:53:23;;;;;;;;;;;;;;;14.46;63.72;100638.09;5031411;28;19918;-81
2022/05/02 05:56:18;;;;;;;;;;;;;;;14.63;62.70;100645.25;5030608;28;19914;-81
2022/05/02 05:59:07;;;;;;;;;;;;;;;14.73;63.10;100649.50;5040535;28;19922;-80
2022/05/02 06:02:06;;;;;;;;;;;;;;;14.66;64.13;100655.53;5043470;28;19913;-81
2022/05/02 06:04:50;;;;;;;;;;;;;;;14.83;65.54;100655.25;5020251;28;19913;-81
2022/05/02 06:07:35;;;;;;;;;;;;;;;14.87;64.45;100658.13;5034313;28;19921;-80
2022/05/02 06:10:22;;;;;;;;;;;;;;;15.14;62.53;100654.63;5024618;28;19914;-80
2022/05/02 06:13:07;;;;;;;;;;;;;;;15.33;61.98;100656.75;5037535;28;19913;-80
2022/05/02 06:18:57;;;;;;;;;;;;;;;15.64;61.28;100645.09;5036038;28;19913;-81
2022/05/02 06:21:45;;;;;;;;;;;;;;;15.79;61.27;100650.63;5028823;28;19913;-81
2022/05/02 06:24:32;;;;;;;;;;;;;;;15.95;60.42;100650.59;5024463;28;19913;-82
2022/05/02 06:27:17;;;;;;;;;;;;;;;15.99;60.93;100653.47;5020155;28;19913;-81
2022/05/02 06:30:04;;;;;;;;;;;;;;;16.15;59.99;100651.53;5030039;28;19917;-81
2022/05/02 06:32:50;;;;;;;;;;;;;;;16.35;58.29;100650.47;5034742;28;19914;-81
2022/05/02 06:35:43;;;;;;;;;;;;;;;16.51;58.94;100656.72;5058830;28;19917;-81
2022/05/02 06:38:40;;;;;;;;;;;;;;;16.70;58.95;100652.47;5027983;28;20105;-82
2022/05/02 06:41:47;;;;;;;;;;;;;;;16.39;58.21;100658.78;5043509;28;19914;-81
2022/05/02 06:44:41;;;;;;;;;;;;;;;16.29;58.63;100660.09;5027206;28;19913;-81
2022/05/02 06:47:38;;;;;;;;;;;;;;;16.35;57.69;100661.44;5024984;28;19917;-80
2022/05/02 06:50:24;;;;;;;;;;;;;;;16.67;57.38;100659.47;5028196;28;19922;-81
2022/05/02 06:53:17;;;;;;;;;;;;;;;16.94;56.81;100669.50;5031131;28;19913;-81
2022/05/02 06:56:05;;;;;;;;;;;;;;;16.82;57.53;100675.09;5038273;28;19913;-81
2022/05/02 06:59:06;;;;;;;;;;;;;;;17.16;56.28;100667.22;5035831;28;19913;-81
2022/05/02 07:01:53;;;;;;;;;;;;;;;17.43;54.95;100675.25;5026987;28;20366;-81
2022/05/02 07:04:45;;;;;;;;;;;;;;;17.47;54.55;100680.84;5026405;28;19914;-84
2022/05/02 07:07:53;;;;;;;;;;;;;;;17.42;53.49;100679.13;5008940;28;19913;-83
2022/05/02 07:10:42;;;;;;;;;;;;;;;17.58;53.26;100684.56;5005964;28;19917;-83
2022/05/02 07:13:36;;;;;;;;;;;;;;;17.73;53.28;100678.22;5036669;28;20377;-83
2022/05/02 07:16:25;;;;;;;;;;;;;;;17.84;53.61;100676.47;5026967;28;19913;-83
2022/05/02 07:19:21;;;;;;;;;;;;;;;17.78;53.52;100677.91;5014145;28;19914;-83
2022/05/02 07:22:11;;;;;;;;;;;;;;;17.86;53.92;100681.59;5018801;28;19913;-83
2022/05/02 07:25:08;;;;;;;;;;;;;;;17.57;54.69;100680.25;5017226;28;19914;-83
2022/05/02 07:27:59;;;;;;;;;;;;;;;17.61;54.63;100686.63;5017138;28;19932;-82
2022/05/02 07:30:45;;;;;;;;;;;;;;;17.51;54.25;100692.69;5013081;28;19917;-84
2022/05/02 07:33:34;;;;;;;;;;;;;;;18.12;52.69;100692.69;5048209;28;19921;-85
2022/05/02 07:36:20;;;;;;;;;;;;;;;18.31;52.75;100697.34;5035680;28;19922;-84
2022/05/02 07:39:05;;;;;;;;;;;;;;;18.50;52.63;100694.50;5024940;28;19918;-85
2022/05/02 07:41:51;;;;;;;;;;;;;;;18.48;50.97;100694.09;5022220;28;19913;-83
2022/05/02 07:44:37;;;;;;;;;;;;;;;18.49;50.80;100695.66;5019538;28;19913;-86
2022/05/02 07:47:24;;;;;;;;;;;;;;;18.63;50.62;100698.69;5006229;28;20306;-87
2022/05/02 07:50:10;;;;;;;;;;;;;;;19.06;49.61;100697.34;5025252;28;19914;-88
2022/05/02 07:52:57;;;;;;;;;;;;;;;19.53;47.74;100699.56;5053593;28;19917;-87
2022/05/02 07:55:45;;;;;;;;;;;;;;;19.80;47.79;100694.75;5067922;28;19917;-87
2022/05/02 07:58:31;;;;;;;;;;;;;;;20.34;46.82;100698.84;5038555;28;19913;-87
2022/05/02 08:01:19;;;;;;;;;;;;;;;20.02;46.98;100695.75;5032381;28;19913;-87
2022/05/02 08:04:04;;;;;;;;;;;;;;;20.24;46.65;100697.56;5022623;28;20386;-87
2022/05/02 08:06:48;;;;;;;;;;;;;;;20.71;45.99;100696.00;5021812;28;19913;-88
2022/05/02 08:09:39;;;;;;;;;;;;;;;20.21;43.18;100701.09;5038333;28;19914;-87
2022/05/02 08:12:33;;;;;;;;;;;;;;;19.91;43.57;100700.41;5030392;28;19913;-88
2022/05/02 08:15:25;;;;;;;;;;;;;;;19.85;42.92;100702.69;5038929;28;19918;-87
2022/05/02 08:18:19;;;;;;;;;;;;;;;19.66;44.43;100700.09;5033214;28;19913;-88
2022/05/02 08:21:15;;;;;;;;;;;;;;;19.89;43.27;100705.50;5011380;28;19917;-87
2022/05/02 08:27:25;;;;;;;;;;;;;;;20.02;42.53;100712.31;5020278;28;19913;-87
2022/05/02 08:30:16;;;;;;;;;;;;;;;19.94;44.03;100705.16;5018694;28;19913;-87
2022/05/02 08:33:00;;;;;;;;;;;;;;;19.46;45.57;100707.75;5038085;28;19914;-87
2022/05/02 08:36:01;;;;;;;;;;;;;;;19.83;45.85;100704.25;5035584;28;19917;-87
2022/05/02 08:38:48;;;;;;;;;;;;;;;19.85;44.90;100701.91;5032481;28;19913;-87
2022/05/02 08:41:48;;;;;;;;;;;;;;;19.83;44.50;100707.78;5033249;28;19913;-87
2022/05/02 08:44:43;;;;;;;;;;;;;;;20.04;43.08;100708.03;5041104;28;19906;-87
2022/05/02 08:47:31;;;;;;;;;;;;;;;19.88;44.32;100703.91;5032183;28;19921;-86
2022/05/02 08:50:32;;;;;;;;;;;;;;;19.85;43.40;100712.94;5023145;28;20381;-87
2022/05/02 08:53:36;;;;;;;;;;;;;;;19.74;42.58;100710.06;5024564;28;19913;-86
2022/05/02 08:56:27;;;;;;;;;;;;;;;19.29;43.05;100707.50;5019912;28;19918;-86
2022/05/02 08:59:30;;;;;;;;;;;;;;;19.36;42.50;100707.59;5036416;28;19913;-86
2022/05/02 09:02:29;;;;;;;;;;;;;;;19.40;42.71;100713.97;5023908;28;19912;-86
2022/05/02 09:05:23;;;;;;;;;;;;;;;19.40;42.83;100719.47;5035312;28;19936;-86
2022/05/02 09:08:11;;;;;;;;;;;;;;;19.66;42.40;100722.16;5016250;28;19921;-86
2022/05/02 09:11:31;;;;;;;;;;;;;;;20.39;42.72;100723.38;5033048;28;19921;-81
2022/05/02 09:14:34;;;;;;;;;;;;;;;20.33;41.11;100722.13;5026332;28;19917;-81
2022/05/02 09:17:37;;;;;;;;;;;;;;;20.56;39.31;100719.16;5016362;28;19913;-83
2022/05/02 09:20:37;;;;;;;;;;;;;;;20.39;40.78;100713.09;5030310;28;20310;-82
2022/05/02 09:23:22;;;;;;;;;;;;;;;20.79;40.02;100714.19;5014532;28;19913;-82
2022/05/02 09:26:06;;;;;;;;;;;;;;;21.19;39.27;100721.59;4999476;28;19917;-82
2022/05/02 09:28:54;;;;;;;;;;;;;;;20.80;40.33;100718.56;5009576;28;20374;-83
2022/05/02 09:31:57;;;;;;;;;;;;;;;21.04;39.66;100709.63;5014758;28;19917;-81
2022/05/02 09:34:47;;;;;;;;;;;;;;;21.13;38.04;100712.84;5018162;28;19917;-82
2022/05/02 09:37:39;;;;;;;;;;;;;;;21.58;37.11;100713.50;5018464;28;19914;-81
2022/05/02 09:40:37;;;;;;;;;;;;;;;21.82;36.83;100707.25;5010614;28;19917;-82
2022/05/02 09:50:13;;;;;;;;;;;;;;;23.31;34.68;100704.47;5030009;28;19913;-83
2022/05/02 09:53:16;;;;;;;;;;;;;;;23.12;34.89;100711.25;5009128;28;19917;-81
2022/05/02 09:59:21;;;;;;;;;;;;;;;23.08;34.23;100704.13;5024537;28;19917;-81
2022/05/02 10:02:14;;;;;;;;;;;;;;;24.00;32.47;100709.31;5011655;28;19914;-81
2022/05/02 10:05:06;;;;;;;;;;;;;;;25.68;30.33;100701.78;5018886;28;20325;-81
2022/05/02 10:07:59;;;;;;;;;;;;;;;26.57;28.44;100704.00;5011720;28;19925;-81
2022/05/02 10:10:56;;;;;;;;;;;;;;;24.20;31.29;100697.28;5017166;28;19914;-81
2022/05/02 10:13:59;;;;;;;;;;;;;;;22.97;33.34;100688.31;5012403;28;19913;-82
2022/05/02 10:16:47;;;;;;;;;;;;;;;22.56;33.99;100687.16;5016023;28;19940;-82
2022/05/02 10:19:50;;;;;;;;;;;;;;;22.45;34.75;100689.16;5035772;28;19913;-82
2022/05/02 10:22:54;;;;;;;;;;;;;;;22.32;35.55;100687.94;5026221;28;19913;-82
2022/05/02 10:26:01;;;;;;;;;;;;;;;22.12;35.48;100687.53;5024938;28;19914;-82
2022/05/02 10:29:01;;;;;;;;;;;;;;;21.83;35.79;100681.13;5017146;28;19913;-82
2022/05/02 10:31:50;;;;;;;;;;;;;;;21.69;37.30;100681.88;5015538;28;19913;-82
2022/05/02 10:34:37;;;;;;;;;;;;;;;21.68;36.83;100669.25;5018854;28;19917;-83
2022/05/02 10:37:27;;;;;;;;;;;;;;;21.48;37.05;100678.28;5021881;28;20302;-82
2022/05/02 10:40:15;;;;;;;;;;;;;;;21.14;38.61;100681.28;5018227;28;20298;-82
2022/05/02 10:43:02;;;;;;;;;;;;;;;21.06;38.14;100674.09;5014087;28;19913;-82
2022/05/02 10:45:48;;;;;;;;;;;;;;;21.21;37.81;100681.31;5007615;28;19914;-82
2022/05/02 10:48:40;;;;;;;;;;;;;;;21.26;37.64;100671.84;5032714;28;19913;-82
2022/05/02 10:51:35;;;;;;;;;;;;;;;21.15;37.47;100671.78;5017204;28;19914;-82
2022/05/02 10:54:35;;;;;;;;;;;;;;;21.25;37.47;100673.81;5016832;28;19917;-82
2022/05/02 10:57:25;;;;;;;;;;;;;;;21.27;36.95;100667.91;5006373;28;19913;-82
2022/05/02 11:00:10;;;;;;;;;;;;;;;21.22;36.39;100668.28;5020899;28;19913;-82
2022/05/02 11:02:55;;;;;;;;;;;;;;;21.14;37.49;100667.44;5015948;28;19917;-82
2022/05/02 11:05:54;;;;;;;;;;;;;;;21.32;36.99;100662.78;5025001;28;20381;-82
2022/05/02 11:08:47;;;;;;;;;;;;;;;21.45;36.85;100659.66;5034158;28;19913;-82
2022/05/02 11:15:05;;;;;;;;;;;;;;;21.46;36.89;100647.41;5070643;28;20387;-67
2022/05/02 11:17:57;;;;;;;;;;;;;;;21.42;36.73;100658.47;5052223;28;19916;-68
2022/05/02 11:20:46;;;;;;;;;;;;;;;21.34;37.13;100657.66;5041499;28;19913;-69
2022/05/02 11:23:40;;;;;;;;;;;;;;;21.33;35.84;100652.53;5044444;28;19920;-69
2022/05/02 11:26:39;;;;;;;;;;;;;;;21.28;36.45;100645.38;5044981;28;19913;-69
2022/05/02 11:29:44;;;;;;;;;;;;;;;21.35;37.25;100644.63;5040064;28;19913;-69
2022/05/02 11:32:46;;;;;;;;;;;;;;;21.38;36.39;100637.53;5047461;28;20299;-69
2022/05/02 11:35:31;;;;;;;;;;;;;;;21.29;37.02;100641.44;5044556;28;19917;-69
2022/05/02 11:38:19;;;;;;;;;;;;;;;21.27;36.37;100641.03;5031992;28;19920;-69
2022/05/02 11:41:14;;;;;;;;;;;;;;;21.26;36.17;100635.88;5043331;28;19913;-69
2022/05/02 11:44:04;;;;;;;;;;;;;;;21.39;36.53;100630.78;5048721;28;19913;-68
2022/05/02 11:46:57;;;;;;;;;;;;;;;21.47;36.93;100635.97;5041127;28;19913;-67
2022/05/02 11:49:48;;;;;;;;;;;;;;;21.59;36.15;100624.53;5028759;28;19917;-69
2022/05/02 11:52:35;;;;;;;;;;;;;;;21.76;35.75;100618.25;5051693;28;19913;-69
2022/05/02 11:55:28;;;;;;;;;;;;;;;21.69;34.50;100617.41;5050214;28;19916;-69
2022/05/02 11:58:25;;;;;;;;;;;;;;;21.81;34.60;100622.59;5036107;28;19913;-69
2022/05/02 12:01:10;;;;;;;;;;;;;;;21.93;35.38;100613.13;5045114;28;19913;-68
2022/05/02 12:04:00;;;;;;;;;;;;;;;21.89;35.16;100613.09;5044825;28;19917;-68
2022/05/02 12:07:05;;;;;;;;;;;;;;;21.78;35.48;100606.78;5048058;28;19912;-68
2022/05/02 12:09:57;;;;;;;;;;;;;;;21.72;35.52;100602.81;5045964;28;19913;-68
2022/05/02 12:12:49;;;;;;;;;;;;;;;21.61;36.62;100608.31;5048770;28;19912;-68
2022/05/02 12:15:52;;;;;;;;;;;;;;;21.51;36.01;100600.00;5047207;28;19917;-69
2022/05/02 12:18:46;;;;;;;;;;;;;;;21.62;36.02;100598.06;5039894;28;19912;-68
2022/05/02 12:21:40;;;;;;;;;;;;;;;21.73;35.74;100591.34;5047554;28;20272;-68
2022/05/02 12:24:27;;;;;;;;;;;;;;;21.86;35.71;100596.50;5046439;28;20310;-69
2022/05/02 12:27:14;;;;;;;;;;;;;;;21.92;34.46;100595.72;5052453;28;19916;-67
2022/05/02 12:30:01;;;;;;;;;;;;;;;21.86;34.27;100586.22;5041364;28;19936;-68
2022/05/02 12:32:47;;;;;;;;;;;;;;;21.98;34.60;100587.84;5050918;28;19975;-67
2022/05/02 12:35:35;;;;;;;;;;;;;;;22.13;34.60;100584.66;5039732;28;19921;-68
2022/05/02 12:38:25;;;;;;;;;;;;;;;22.14;35.20;100591.00;5041193;28;19912;-70
2022/05/02 12:41:11;;;;;;;;;;;;;;;22.12;33.52;100583.06;5051678;28;19912;-69
2022/05/02 12:44:03;;;;;;;;;;;;;;;22.24;33.71;100572.78;5046689;28;19920;-69
2022/05/02 12:46:48;;;;;;;;;;;;;;;22.34;34.18;100583.06;5048355;28;19912;-69
2022/05/02 12:49:52;;;;;;;;;;;;;;;22.39;33.69;100572.38;5045417;28;19913;-68
2022/05/02 12:52:42;;;;;;;;;;;;;;;22.53;33.38;100571.53;5050711;28;19917;-68
2022/05/02 12:55:31;;;;;;;;;;;;;;;22.68;33.31;100564.75;5046061;28;20283;-69
2022/05/02 13:01:22;;;;;;;;;;;;;;;22.92;33.20;100560.34;5034545;28;19913;-69
2022/05/02 13:04:13;;;;;;;;;;;;;;;22.95;32.66;100562.31;5045540;28;19913;-69
2022/05/02 13:06:58;;;;;;;;;;;;;;;22.82;33.03;100553.66;5048982;28;19913;-69
2022/05/02 13:09:45;;;;;;;;;;;;;;;22.79;32.26;100560.00;5049531;28;20300;-67
2022/05/02 13:12:29;;;;;;;;;;;;;;;22.94;33.21;100539.34;5047045;28;19913;-67
2022/05/02 13:15:14;;;;;;;;;;;;;;;23.00;32.19;100542.50;5042572;28;20283;-69
2022/05/02 13:18:01;;;;;;;;;;;;;;;23.10;32.01;100540.84;5051796;28;19912;-68
2022/05/02 13:20:59;;;;;;;;;;;;;;;23.17;31.32;100541.59;5053665;28;19916;-68
2022/05/02 13:23:51;;;;;;;;;;;;;;;23.30;31.92;100545.50;5045744;28;19913;-68
2022/05/02 13:26:55;;;;;;;;;;;;;;;22.98;31.67;100539.31;5053778;28;20410;-70
2022/05/02 13:29:40;;;;;;;;;;;;;;;23.10;32.05;100532.53;5048129;28;20279;-69
2022/05/02 13:32:25;;;;;;;;;;;;;;;23.01;32.24;100533.75;5043909;28;20376;-69
2022/05/02 13:35:16;;;;;;;;;;;;;;;23.11;32.53;100525.78;5044800;28;19917;-67
2022/05/02 13:38:09;;;;;;;;;;;;;;;22.78;32.61;100524.34;5044728;28;19916;-68
2022/05/02 13:41:03;;;;;;;;;;;;;;;22.61;32.38;100526.75;5053289;28;19912;-69
2022/05/02 13:44:09;;;;;;;;;;;;;;;22.33;32.96;100515.78;5047162;28;19913;-69
2022/05/02 13:47:00;;;;;;;;;;;;;;;22.31;32.95;100520.91;5052171;28;19913;-69
2022/05/02 13:49:46;;;;;;;;;;;;;;;22.20;34.70;100511.06;5053190;28;20371;-68
2022/05/02 13:52:46;;;;;;;;;;;;;;;22.08;34.18;100510.28;5045652;28;19912;-68
2022/05/02 13:55:50;;;;;;;;;;;;;;;22.05;34.75;100508.28;5046276;28;20380;-68
2022/05/02 13:58:50;;;;;;;;;;;;;;;22.02;33.98;100500.00;5049744;28;19913;-68
2022/05/02 14:01:45;;;;;;;;;;;;;;;22.01;33.82;100504.75;5043307;28;20356;-68
2022/05/02 14:07:17;;;;;;;;;;;;;;;22.08;33.37;100499.22;5046961;28;19913;-68
2022/05/02 14:10:04;;;;;;;;;;;;;;;22.08;34.00;100495.63;5045590;28;19913;-69
2022/05/02 14:12:48;;;;;;;;;;;;;;;21.87;32.94;100499.19;5039096;28;20391;-67
2022/05/02 14:15:33;;;;;;;;;;;;;;;22.02;33.37;100494.47;5048794;28;19921;-69
2022/05/02 14:18:18;;;;;;;;;;;;;;;22.00;33.20;100496.81;5052719;28;19912;-69
2022/05/02 14:21:06;;;;;;;;;;;;;;;22.06;34.71;100492.47;5044985;28;19913;-69
2022/05/02 14:23:56;;;;;;;;;;;;;;;22.00;35.13;100488.53;5044569;28;19913;-69
2022/05/02 14:26:41;;;;;;;;;;;;;;;21.93;35.00;100486.53;5053003;28;19913;-68
2022/05/02 14:29:30;;;;;;;;;;;;;;;21.99;36.21;100481.41;5052291;28;19913;-68
2022/05/02 14:32:14;;;;;;;;;;;;;;;21.98;35.42;100480.63;5046064;28;19917;-68
2022/05/02 14:34:59;;;;;;;;;;;;;;;21.91;34.31;100477.81;5044396;28;20296;-68
2022/05/02 14:37:46;;;;;;;;;;;;;;;21.91;35.21;100477.03;5044368;28;19913;-68
2022/05/02 14:40:31;;;;;;;;;;;;;;;21.97;34.72;100481.81;5044394;28;19913;-69
2022/05/02 14:43:17;;;;;;;;;;;;;;;21.95;34.09;100478.63;5052657;28;19913;-67
2022/05/02 14:46:04;;;;;;;;;;;;;;;21.95;33.60;100475.88;5051878;28;19913;-69
2022/05/02 14:48:50;;;;;;;;;;;;;;;21.97;33.04;100476.28;5045835;28;19916;-69
2022/05/02 14:51:38;;;;;;;;;;;;;;;21.91;32.70;100472.28;5051514;28;19913;-69
2022/05/02 14:54:24;;;;;;;;;;;;;;;21.89;33.59;100476.66;5049307;28;20415;-69
2022/05/02 14:57:11;;;;;;;;;;;;;;;21.88;33.12;100470.31;5044099;28;19917;-69
2022/05/02 14:59:58;;;;;;;;;;;;;;;21.89;33.39;100473.88;5044884;28;19921;-69
2022/05/02 15:02:44;;;;;;;;;;;;;;;21.91;32.99;100469.53;5024252;28;19913;-69
2022/05/02 15:05:33;;;;;;;;;;;;;;;21.89;32.46;100469.13;5045592;28;20298;-69